sensor_id;sensor_type;location;lat;lon;timestamp;pressure;altitude;pressure_sealevel;temperature;humidity
21779;BME280;11050;52.222;20.916;2023-02-26T00:01:23;98710.88;;;2.67;100.00
21779;BME280;11050;52.222;20.916;2023-02-26T00:03:51;98722.66;;;2.61;100.00
21779;BME280;11050;52.222;20.916;2023-02-26T00:06:18;98729.50;;;2.64;100.00
21779;BME280;11050;52.222;20.916;2023-02-26T00:08:44;98732.69;;;2.61;100.00
21779;BME280;11050;52.222;20.916;2023-02-26T00:11:11;98736.94;;;2.57;100.00
21779;BME280;11050;52.222;20.916;2023-02-26T00:13:40;98740.56;;;2.62;100.00
21779;BME280;11050;52.222;20.916;2023-02-26T00:16:33;98741.56;;;2.56;100.00
21779;BME280;11050;52.222;20.916;2023-02-26T00:19:04;98749.91;;;2.55;100.00
21779;BME280;11050;52.222;20.916;2023-02-26T00:21:31;98752.16;;;2.58;100.00
21779;BME280;11050;52.222;20.916;2023-02-26T00:23:57;98762.59;;;2.66;100.00
21779;BME280;11050;52.222;20.916;2023-02-26T00:26:26;98764.19;;;2.62;100.00
21779;BME280;11050;52.222;20.916;2023-02-26T00:28:53;98761.56;;;2.67;100.00
21779;BME280;11050;52.222;20.916;2023-02-26T00:31:19;98768.44;;;2.58;100.00
21779;BME280;11050;52.222;20.916;2023-02-26T00:33:50;98764.44;;;2.49;100.00
21779;BME280;11050;52.222;20.916;2023-02-26T00:41:53;98788.88;;;2.37;100.00
21779;BME280;11050;52.222;20.916;2023-02-26T00:44:19;98781.19;;;2.34;100.00
21779;BME280;11050;52.222;20.916;2023-02-26T00:52:35;98785.47;;;2.19;100.00
21779;BME280;11050;52.222;20.916;2023-02-26T00:55:03;98801.50;;;2.20;100.00
21779;BME280;11050;52.222;20.916;2023-02-26T00:57:29;98792.19;;;2.16;100.00
21779;BME280;11050;52.222;20.916;2023-02-26T00:59:55;98798.19;;;2.18;100.00
21779;BME280;11050;52.222;20.916;2023-02-26T01:02:21;98806.31;;;2.18;100.00
21779;BME280;11050;52.222;20.916;2023-02-26T01:04:47;98804.44;;;2.19;100.00
21779;BME280;11050;52.222;20.916;2023-02-26T01:07:14;98814.69;;;2.17;100.00
21779;BME280;11050;52.222;20.916;2023-02-26T01:09:40;98805.38;;;2.13;100.00
21779;BME280;11050;52.222;20.916;2023-02-26T01:12:10;98817.03;;;2.13;100.00
21779;BME280;11050;52.222;20.916;2023-02-26T01:14:39;98824.69;;;2.16;100.00
21779;BME280;11050;52.222;20.916;2023-02-26T01:19:53;98837.31;;;2.11;100.00
21779;BME280;11050;52.222;20.916;2023-02-26T01:22:25;98838.81;;;2.07;100.00
21779;BME280;11050;52.222;20.916;2023-02-26T01:25:02;98849.19;;;2.10;100.00
21779;BME280;11050;52.222;20.916;2023-02-26T01:27:29;98853.06;;;2.14;100.00
21779;BME280;11050;52.222;20.916;2023-02-26T01:29:55;98845.44;;;2.11;100.00
21779;BME280;11050;52.222;20.916;2023-02-26T01:35:46;98861.09;;;2.09;100.00
21779;BME280;11050;52.222;20.916;2023-02-26T01:41:41;98878.97;;;2.10;100.00
21779;BME280;11050;52.222;20.916;2023-02-26T01:44:28;98880.41;;;2.12;100.00
21779;BME280;11050;52.222;20.916;2023-02-26T01:50:13;98893.13;;;2.12;100.00
21779;BME280;11050;52.222;20.916;2023-02-26T01:55:19;98899.47;;;2.06;100.00
21779;BME280;11050;52.222;20.916;2023-02-26T01:57:46;98907.16;;;2.09;100.00
21779;BME280;11050;52.222;20.916;2023-02-26T02:00:15;98912.09;;;2.12;100.00
21779;BME280;11050;52.222;20.916;2023-02-26T02:02:41;98926.47;;;2.12;100.00
21779;BME280;11050;52.222;20.916;2023-02-26T02:05:19;98931.78;;;2.07;99.78
21779;BME280;11050;52.222;20.916;2023-02-26T02:07:46;98936.94;;;2.09;100.00
21779;BME280;11050;52.222;20.916;2023-02-26T02:10:12;98935.63;;;2.00;99.50
21779;BME280;11050;52.222;20.916;2023-02-26T02:31:58;98996.28;;;1.99;99.25
21779;BME280;11050;52.222;20.916;2023-02-26T02:34:48;98986.50;;;1.98;98.02
21779;BME280;11050;52.222;20.916;2023-02-26T02:37:26;98983.56;;;1.99;98.27
21779;BME280;11050;52.222;20.916;2023-02-26T02:40:06;98997.09;;;1.99;98.52
21779;BME280;11050;52.222;20.916;2023-02-26T02:42:40;98995.22;;;2.00;98.94
21779;BME280;11050;52.222;20.916;2023-02-26T02:45:27;98993.22;;;1.95;99.36
21779;BME280;11050;52.222;20.916;2023-02-26T02:48:05;98994.41;;;1.99;99.04
21779;BME280;11050;52.222;20.916;2023-02-26T02:50:41;98998.53;;;2.02;99.87
21779;BME280;11050;52.222;20.916;2023-02-26T02:53:20;98989.81;;;2.00;99.37
21779;BME280;11050;52.222;20.916;2023-02-26T02:55:58;98995.59;;;2.03;99.37
21779;BME280;11050;52.222;20.916;2023-02-26T02:58:31;99005.72;;;2.08;98.45
21779;BME280;11050;52.222;20.916;2023-02-26T03:01:04;99007.28;;;2.04;99.01
21779;BME280;11050;52.222;20.916;2023-02-26T03:03:54;99005.34;;;2.04;99.36
21779;BME280;11050;52.222;20.916;2023-02-26T03:06:21;99010.78;;;2.04;98.81
21779;BME280;11050;52.222;20.916;2023-02-26T03:08:50;99025.53;;;2.08;97.98
21779;BME280;11050;52.222;20.916;2023-02-26T03:11:17;99020.41;;;2.00;98.42
21779;BME280;11050;52.222;20.916;2023-02-26T03:13:45;99032.22;;;2.06;97.16
21779;BME280;11050;52.222;20.916;2023-02-26T03:19:21;99056.50;;;2.12;96.95
21779;BME280;11050;52.222;20.916;2023-02-26T03:22:21;99064.66;;;2.12;96.90
21779;BME280;11050;52.222;20.916;2023-02-26T03:30:34;99087.97;;;2.13;98.32
21779;BME280;11050;52.222;20.916;2023-02-26T03:33:13;99095.88;;;2.15;97.62
21779;BME280;11050;52.222;20.916;2023-02-26T03:35:54;99083.97;;;2.16;97.09
21779;BME280;11050;52.222;20.916;2023-02-26T03:41:16;99097.44;;;2.22;97.64
21779;BME280;11050;52.222;20.916;2023-02-26T03:43:54;99093.31;;;2.20;97.22
21779;BME280;11050;52.222;20.916;2023-02-26T03:46:47;99103.06;;;2.21;96.75
21779;BME280;11050;52.222;20.916;2023-02-26T03:49:42;99108.97;;;2.18;97.07
21779;BME280;11050;52.222;20.916;2023-02-26T03:52:09;99106.84;;;2.20;96.83
21779;BME280;11050;52.222;20.916;2023-02-26T03:54:49;99113.34;;;2.19;96.95
21779;BME280;11050;52.222;20.916;2023-02-26T03:57:17;99119.50;;;2.26;96.45
21779;BME280;11050;52.222;20.916;2023-02-26T03:59:42;99124.06;;;2.25;96.83
21779;BME280;11050;52.222;20.916;2023-02-26T04:02:12;99113.47;;;2.24;96.44
21779;BME280;11050;52.222;20.916;2023-02-26T04:04:50;99119.94;;;2.23;96.87
21779;BME280;11050;52.222;20.916;2023-02-26T04:07:18;99124.06;;;2.25;97.30
21779;BME280;11050;52.222;20.916;2023-02-26T04:09:48;99124.91;;;2.26;96.45
21779;BME280;11050;52.222;20.916;2023-02-26T04:12:14;99135.28;;;2.29;97.13
21779;BME280;11050;52.222;20.916;2023-02-26T04:14:44;99140.69;;;2.29;97.31
21779;BME280;11050;52.222;20.916;2023-02-26T04:17:10;99141.78;;;2.28;96.96
21779;BME280;11050;52.222;20.916;2023-02-26T04:19:35;99146.13;;;2.29;97.23
21779;BME280;11050;52.222;20.916;2023-02-26T04:22:01;99150.28;;;2.31;97.14
21779;BME280;11050;52.222;20.916;2023-02-26T04:24:27;99152.16;;;2.31;96.69
21779;BME280;11050;52.222;20.916;2023-02-26T04:26:52;99155.94;;;2.30;97.41
21779;BME280;11050;52.222;20.916;2023-02-26T04:29:18;99161.72;;;2.33;97.26
21779;BME280;11050;52.222;20.916;2023-02-26T04:31:44;99165.03;;;2.35;96.95
21779;BME280;11050;52.222;20.916;2023-02-26T04:34:09;99165.81;;;2.36;97.32
21779;BME280;11050;52.222;20.916;2023-02-26T04:36:35;99167.97;;;2.34;96.97
21779;BME280;11050;52.222;20.916;2023-02-26T04:39:01;99170.06;;;2.32;97.43
21779;BME280;11050;52.222;20.916;2023-02-26T04:41:27;99167.72;;;2.35;97.36
21779;BME280;11050;52.222;20.916;2023-02-26T04:43:52;99171.72;;;2.33;97.02
21779;BME280;11050;52.222;20.916;2023-02-26T04:46:18;99179.25;;;2.31;97.42
21779;BME280;11050;52.222;20.916;2023-02-26T04:48:44;99175.34;;;2.27;98.18
21779;BME280;11050;52.222;20.916;2023-02-26T04:51:10;99174.66;;;2.31;98.35
21779;BME280;11050;52.222;20.916;2023-02-26T04:53:35;99189.03;;;2.32;98.39
21779;BME280;11050;52.222;20.916;2023-02-26T04:56:01;99178.28;;;2.25;99.10
21779;BME280;11050;52.222;20.916;2023-02-26T04:58:27;99200.50;;;2.34;100.00
21779;BME280;11050;52.222;20.916;2023-02-26T05:00:52;99195.50;;;2.31;99.47
21779;BME280;11050;52.222;20.916;2023-02-26T05:03:20;99204.00;;;2.34;98.69
21779;BME280;11050;52.222;20.916;2023-02-26T05:05:46;99199.28;;;2.30;99.21
21779;BME280;11050;52.222;20.916;2023-02-26T05:08:12;99213.13;;;2.22;97.26
21779;BME280;11050;52.222;20.916;2023-02-26T05:10:38;99211.31;;;2.16;97.31
21779;BME280;11050;52.222;20.916;2023-02-26T05:13:04;99215.53;;;2.12;96.85
21779;BME280;11050;52.222;20.916;2023-02-26T05:15:30;99219.38;;;2.04;97.12
21779;BME280;11050;52.222;20.916;2023-02-26T05:17:56;99225.56;;;2.11;97.39
21779;BME280;11050;52.222;20.916;2023-02-26T05:20:21;99239.69;;;2.13;98.62
21779;BME280;11050;52.222;20.916;2023-02-26T05:22:47;99237.81;;;2.14;97.19
21779;BME280;11050;52.222;20.916;2023-02-26T05:25:13;99252.44;;;2.13;97.79
21779;BME280;11050;52.222;20.916;2023-02-26T05:27:41;99249.13;;;2.11;96.31
21779;BME280;11050;52.222;20.916;2023-02-26T05:30:09;99241.84;;;2.11;96.10
21779;BME280;11050;52.222;20.916;2023-02-26T05:32:36;99259.34;;;2.09;96.61
21779;BME280;11050;52.222;20.916;2023-02-26T05:35:02;99257.31;;;2.04;95.88
21779;BME280;11050;52.222;20.916;2023-02-26T05:37:28;99256.69;;;2.02;94.87
21779;BME280;11050;52.222;20.916;2023-02-26T05:39:54;99270.94;;;1.98;94.20
21779;BME280;11050;52.222;20.916;2023-02-26T05:42:19;99277.84;;;1.93;95.18
21779;BME280;11050;52.222;20.916;2023-02-26T05:44:45;99288.22;;;1.97;95.08
21779;BME280;11050;52.222;20.916;2023-02-26T05:47:11;99291.53;;;1.99;94.92
21779;BME280;11050;52.222;20.916;2023-02-26T05:49:36;99296.59;;;1.95;94.63
21779;BME280;11050;52.222;20.916;2023-02-26T05:52:03;99315.94;;;1.99;93.63
21779;BME280;11050;52.222;20.916;2023-02-26T05:54:28;99316.66;;;1.87;91.49
21779;BME280;11050;52.222;20.916;2023-02-26T05:56:54;99322.56;;;1.78;92.02
21779;BME280;11050;52.222;20.916;2023-02-26T05:59:20;99328.44;;;1.75;91.97
21779;BME280;11050;52.222;20.916;2023-02-26T06:01:46;99339.94;;;1.70;89.83
21779;BME280;11050;52.222;20.916;2023-02-26T06:04:12;99345.84;;;1.61;87.56
21779;BME280;11050;52.222;20.916;2023-02-26T06:06:38;99341.13;;;1.50;85.58
21779;BME280;11050;52.222;20.916;2023-02-26T06:09:04;99344.94;;;1.42;85.44
21779;BME280;11050;52.222;20.916;2023-02-26T06:11:30;99361.16;;;1.42;84.63
21779;BME280;11050;52.222;20.916;2023-02-26T06:13:57;99351.22;;;1.36;83.59
21779;BME280;11050;52.222;20.916;2023-02-26T06:16:23;99368.28;;;1.37;82.15
21779;BME280;11050;52.222;20.916;2023-02-26T06:18:48;99371.81;;;1.37;81.09
21779;BME280;11050;52.222;20.916;2023-02-26T06:21:16;99378.72;;;1.33;81.54
21779;BME280;11050;52.222;20.916;2023-02-26T06:23:43;99376.00;;;1.33;80.78
21779;BME280;11050;52.222;20.916;2023-02-26T06:26:09;99384.13;;;1.33;80.45
21779;BME280;11050;52.222;20.916;2023-02-26T06:28:35;99389.53;;;1.33;81.73
21779;BME280;11050;52.222;20.916;2023-02-26T06:31:01;99382.28;;;1.27;81.10
21779;BME280;11050;52.222;20.916;2023-02-26T06:33:27;99396.22;;;1.31;81.70
21779;BME280;11050;52.222;20.916;2023-02-26T06:35:52;99403.53;;;1.24;82.27
21779;BME280;11050;52.222;20.916;2023-02-26T06:38:18;99406.19;;;1.30;81.56
21779;BME280;11050;52.222;20.916;2023-02-26T06:40:46;99414.94;;;1.32;82.64
21779;BME280;11050;52.222;20.916;2023-02-26T06:43:12;99415.53;;;1.34;82.48
21779;BME280;11050;52.222;20.916;2023-02-26T06:45:38;99414.06;;;1.38;81.81
21779;BME280;11050;52.222;20.916;2023-02-26T06:48:04;99423.66;;;1.41;82.21
21779;BME280;11050;52.222;20.916;2023-02-26T06:50:29;99417.16;;;1.42;81.57
21779;BME280;11050;52.222;20.916;2023-02-26T06:52:56;99427.81;;;1.43;80.79
21779;BME280;11050;52.222;20.916;2023-02-26T06:55:22;99434.41;;;1.47;79.99
21779;BME280;11050;52.222;20.916;2023-02-26T06:57:55;99444.16;;;1.55;80.02
21779;BME280;11050;52.222;20.916;2023-02-26T07:00:22;99447.09;;;1.53;79.89
21779;BME280;11050;52.222;20.916;2023-02-26T07:02:49;99449.78;;;1.60;79.94
21779;BME280;11050;52.222;20.916;2023-02-26T07:05:15;99457.22;;;1.64;77.47
21779;BME280;11050;52.222;20.916;2023-02-26T07:07:42;99463.47;;;1.71;76.57
21779;BME280;11050;52.222;20.916;2023-02-26T07:10:10;99460.53;;;1.73;75.37
21779;BME280;11050;52.222;20.916;2023-02-26T07:12:36;99470.88;;;1.82;75.24
21779;BME280;11050;52.222;20.916;2023-02-26T07:15:06;99488.53;;;1.91;74.38
21779;BME280;11050;52.222;20.916;2023-02-26T07:17:32;99482.66;;;1.94;73.36
21779;BME280;11050;52.222;20.916;2023-02-26T07:19:57;99491.78;;;2.00;72.57
21779;BME280;11050;52.222;20.916;2023-02-26T07:22:23;99502.00;;;1.98;73.07
21779;BME280;11050;52.222;20.916;2023-02-26T07:24:49;99498.22;;;2.06;73.57
21779;BME280;11050;52.222;20.916;2023-02-26T07:27:16;99498.63;;;2.09;71.81
21779;BME280;11050;52.222;20.916;2023-02-26T07:29:41;99507.97;;;2.13;72.09
21779;BME280;11050;52.222;20.916;2023-02-26T07:32:07;99506.47;;;2.17;72.17
21779;BME280;11050;52.222;20.916;2023-02-26T07:34:33;99512.97;;;2.16;72.25
21779;BME280;11050;52.222;20.916;2023-02-26T07:36:59;99517.69;;;2.21;73.02
21779;BME280;11050;52.222;20.916;2023-02-26T07:39:25;99515.41;;;2.24;71.96
21779;BME280;11050;52.222;20.916;2023-02-26T07:41:52;99525.75;;;2.34;73.01
21779;BME280;11050;52.222;20.916;2023-02-26T07:44:18;99522.16;;;2.40;72.17
21779;BME280;11050;52.222;20.916;2023-02-26T07:46:43;99540.09;;;2.41;71.98
21779;BME280;11050;52.222;20.916;2023-02-26T07:49:09;99530.66;;;2.43;72.86
21779;BME280;11050;52.222;20.916;2023-02-26T07:51:35;99540.72;;;2.43;70.24
21779;BME280;11050;52.222;20.916;2023-02-26T07:54:02;99547.84;;;2.37;69.27
21779;BME280;11050;52.222;20.916;2023-02-26T07:56:28;99542.63;;;2.36;70.43
21779;BME280;11050;52.222;20.916;2023-02-26T07:58:53;99550.56;;;2.37;71.15
21779;BME280;11050;52.222;20.916;2023-02-26T08:01:19;99552.59;;;2.42;71.60
21779;BME280;11050;52.222;20.916;2023-02-26T08:03:45;99558.22;;;2.40;71.69
21779;BME280;11050;52.222;20.916;2023-02-26T08:06:11;99552.97;;;2.45;71.29
21779;BME280;11050;52.222;20.916;2023-02-26T08:08:36;99561.78;;;2.41;70.42
21779;BME280;11050;52.222;20.916;2023-02-26T08:11:02;99568.84;;;2.42;70.73
21779;BME280;11050;52.222;20.916;2023-02-26T08:13:28;99569.06;;;2.40;71.08
21779;BME280;11050;52.222;20.916;2023-02-26T08:15:54;99567.22;;;2.34;70.89
21779;BME280;11050;52.222;20.916;2023-02-26T08:18:19;99578.22;;;2.46;71.54
21779;BME280;11050;52.222;20.916;2023-02-26T08:20:45;99590.72;;;2.47;70.90
21779;BME280;11050;52.222;20.916;2023-02-26T08:23:11;99591.94;;;2.51;71.94
21779;BME280;11050;52.222;20.916;2023-02-26T08:25:38;99609.66;;;2.53;71.56
21779;BME280;11050;52.222;20.916;2023-02-26T08:28:04;99609.00;;;2.58;71.67
21779;BME280;11050;52.222;20.916;2023-02-26T08:30:30;99609.22;;;2.56;71.55
21779;BME280;11050;52.222;20.916;2023-02-26T08:32:56;99614.44;;;2.58;72.44
21779;BME280;11050;52.222;20.916;2023-02-26T08:35:21;99609.50;;;2.48;70.04
21779;BME280;11050;52.222;20.916;2023-02-26T08:37:47;99609.09;;;2.45;70.33
21779;BME280;11050;52.222;20.916;2023-02-26T08:40:13;99617.66;;;2.42;71.51
21779;BME280;11050;52.222;20.916;2023-02-26T08:42:39;99620.75;;;2.45;71.22
21779;BME280;11050;52.222;20.916;2023-02-26T08:45:05;99620.56;;;2.47;71.93
21779;BME280;11050;52.222;20.916;2023-02-26T08:47:31;99630.97;;;2.50;70.34
21779;BME280;11050;52.222;20.916;2023-02-26T08:49:57;99637.69;;;2.41;71.81
21779;BME280;11050;52.222;20.916;2023-02-26T08:52:23;99643.97;;;2.35;71.15
21779;BME280;11050;52.222;20.916;2023-02-26T08:54:49;99646.94;;;2.27;71.77
21779;BME280;11050;52.222;20.916;2023-02-26T08:57:15;99661.31;;;2.27;71.30
21779;BME280;11050;52.222;20.916;2023-02-26T08:59:42;99665.50;;;2.23;72.56
21779;BME280;11050;52.222;20.916;2023-02-26T09:02:11;99667.81;;;2.20;71.66
21779;BME280;11050;52.222;20.916;2023-02-26T09:04:37;99673.41;;;2.25;71.32
21779;BME280;11050;52.222;20.916;2023-02-26T09:07:04;99674.88;;;2.27;70.69
21779;BME280;11050;52.222;20.916;2023-02-26T09:09:29;99691.59;;;2.24;69.00
21779;BME280;11050;52.222;20.916;2023-02-26T09:11:55;99681.75;;;2.30;70.09
21779;BME280;11050;52.222;20.916;2023-02-26T09:14:21;99690.06;;;2.28;69.14
21779;BME280;11050;52.222;20.916;2023-02-26T09:16:47;99702.78;;;2.34;69.65
21779;BME280;11050;52.222;20.916;2023-02-26T09:19:12;99707.31;;;2.47;70.28
21779;BME280;11050;52.222;20.916;2023-02-26T09:21:38;99699.13;;;2.53;70.13
21779;BME280;11050;52.222;20.916;2023-02-26T09:24:04;99705.56;;;2.59;69.59
21779;BME280;11050;52.222;20.916;2023-02-26T09:26:30;99704.34;;;2.55;68.23
21779;BME280;11050;52.222;20.916;2023-02-26T09:28:56;99710.22;;;2.45;69.70
21779;BME280;11050;52.222;20.916;2023-02-26T09:31:21;99722.31;;;2.49;70.21
21779;BME280;11050;52.222;20.916;2023-02-26T09:33:54;99712.69;;;2.53;70.66
21779;BME280;11050;52.222;20.916;2023-02-26T09:36:20;99722.25;;;2.62;69.58
21779;BME280;11050;52.222;20.916;2023-02-26T09:38:45;99719.34;;;2.57;69.21
21779;BME280;11050;52.222;20.916;2023-02-26T09:41:23;99716.66;;;2.51;69.63
21779;BME280;11050;52.222;20.916;2023-02-26T09:44:16;99732.53;;;2.54;69.97
21779;BME280;11050;52.222;20.916;2023-02-26T09:46:58;99746.88;;;2.61;72.06
21779;BME280;11050;52.222;20.916;2023-02-26T09:49:58;99753.53;;;2.65;70.88
21779;BME280;11050;52.222;20.916;2023-02-26T09:53:01;99756.84;;;2.67;70.96
21779;BME280;11050;52.222;20.916;2023-02-26T09:55:37;99760.59;;;2.72;71.19
21779;BME280;11050;52.222;20.916;2023-02-26T09:58:29;99764.94;;;2.73;72.12
21779;BME280;11050;52.222;20.916;2023-02-26T10:01:29;99759.53;;;2.73;72.12
21779;BME280;11050;52.222;20.916;2023-02-26T10:04:43;99760.97;;;2.76;72.92
21779;BME280;11050;52.222;20.916;2023-02-26T10:07:28;99766.34;;;2.89;72.39
21779;BME280;11050;52.222;20.916;2023-02-26T10:12:42;99784.47;;;2.95;71.43
21779;BME280;11050;52.222;20.916;2023-02-26T10:15:41;99782.75;;;3.01;72.40
21779;BME280;11050;52.222;20.916;2023-02-26T10:18:33;99785.00;;;3.10;72.12
21779;BME280;11050;52.222;20.916;2023-02-26T10:21:10;99785.38;;;3.14;71.54
21779;BME280;11050;52.222;20.916;2023-02-26T10:23:51;99781.06;;;3.06;71.41
21779;BME280;11050;52.222;20.916;2023-02-26T10:26:36;99792.53;;;3.08;72.62
21779;BME280;11050;52.222;20.916;2023-02-26T10:29:25;99803.00;;;3.05;72.48
21779;BME280;11050;52.222;20.916;2023-02-26T10:32:27;99805.09;;;3.03;71.17
21779;BME280;11050;52.222;20.916;2023-02-26T10:35:08;99806.34;;;3.00;71.77
21779;BME280;11050;52.222;20.916;2023-02-26T10:38:10;99798.25;;;2.94;71.62
21779;BME280;11050;52.222;20.916;2023-02-26T10:40:46;99811.19;;;2.92;70.41
21779;BME280;11050;52.222;20.916;2023-02-26T10:43:34;99820.59;;;2.89;68.87
21779;BME280;11050;52.222;20.916;2023-02-26T10:46:42;99830.03;;;2.86;69.38
21779;BME280;11050;52.222;20.916;2023-02-26T10:49:29;99827.72;;;2.83;70.03
21779;BME280;11050;52.222;20.916;2023-02-26T10:52:10;99837.09;;;2.87;70.25
21779;BME280;11050;52.222;20.916;2023-02-26T10:57:46;99832.66;;;3.00;68.21
21779;BME280;11050;52.222;20.916;2023-02-26T11:00:19;99847.19;;;3.18;67.91
21779;BME280;11050;52.222;20.916;2023-02-26T11:02:49;99844.63;;;3.23;67.01
21779;BME280;11050;52.222;20.916;2023-02-26T11:05:23;99848.72;;;3.39;66.22
21779;BME280;11050;52.222;20.916;2023-02-26T11:07:56;99852.19;;;3.52;65.73
21779;BME280;11050;52.222;20.916;2023-02-26T11:10:38;99856.09;;;3.56;62.75
21779;BME280;11050;52.222;20.916;2023-02-26T11:13:05;99855.06;;;3.57;60.67
21779;BME280;11050;52.222;20.916;2023-02-26T11:15:30;99861.06;;;3.66;60.85
21779;BME280;11050;52.222;20.916;2023-02-26T11:17:58;99867.78;;;3.63;57.95
21779;BME280;11050;52.222;20.916;2023-02-26T11:20:36;99868.50;;;3.52;57.80
21779;BME280;11050;52.222;20.916;2023-02-26T11:23:11;99869.91;;;3.55;58.84
21779;BME280;11050;52.222;20.916;2023-02-26T11:25:38;99865.78;;;3.52;59.28
21779;BME280;11050;52.222;20.916;2023-02-26T11:28:19;99872.16;;;3.64;58.19
21779;BME280;11050;52.222;20.916;2023-02-26T11:30:45;99882.69;;;3.79;58.63
21779;BME280;11050;52.222;20.916;2023-02-26T11:33:20;99887.72;;;3.82;57.53
21779;BME280;11050;52.222;20.916;2023-02-26T11:35:46;99877.78;;;3.69;57.34
21779;BME280;11050;52.222;20.916;2023-02-26T11:38:24;99883.09;;;3.58;58.25
21779;BME280;11050;52.222;20.916;2023-02-26T11:40:56;99896.81;;;3.63;57.40
21779;BME280;11050;52.222;20.916;2023-02-26T11:43:26;99896.66;;;3.58;58.68
21779;BME280;11050;52.222;20.916;2023-02-26T11:46:00;99900.47;;;3.50;58.13
21779;BME280;11050;52.222;20.916;2023-02-26T11:48:48;99895.69;;;3.46;58.13
21779;BME280;11050;52.222;20.916;2023-02-26T11:51:19;99905.91;;;3.50;59.30
21779;BME280;11050;52.222;20.916;2023-02-26T11:53:58;99908.56;;;3.57;59.88
21779;BME280;11050;52.222;20.916;2023-02-26T11:56:33;99919.66;;;3.55;60.03
21779;BME280;11050;52.222;20.916;2023-02-26T11:59:20;99909.78;;;3.61;59.47
21779;BME280;11050;52.222;20.916;2023-02-26T12:01:48;99921.31;;;3.56;59.82
21779;BME280;11050;52.222;20.916;2023-02-26T12:04:24;99929.72;;;3.48;60.60
21779;BME280;11050;52.222;20.916;2023-02-26T12:06:54;99932.44;;;3.48;60.36
21779;BME280;11050;52.222;20.916;2023-02-26T12:09:21;99933.47;;;3.54;60.42
21779;BME280;11050;52.222;20.916;2023-02-26T12:12:20;99947.38;;;3.64;60.55
21779;BME280;11050;52.222;20.916;2023-02-26T12:15:27;99945.56;;;3.89;61.21
21779;BME280;11050;52.222;20.916;2023-02-26T12:18:24;99953.19;;;4.05;61.20
21779;BME280;11050;52.222;20.916;2023-02-26T12:21:27;99955.59;;;4.20;60.08
21779;BME280;11050;52.222;20.916;2023-02-26T12:27:12;99953.88;;;4.25;59.06
21779;BME280;11050;52.222;20.916;2023-02-26T12:30:12;99952.13;;;4.06;59.82
21779;BME280;11050;52.222;20.916;2023-02-26T12:43:21;99962.72;;;3.90;59.92
21779;BME280;11050;52.222;20.916;2023-02-26T12:46:18;99963.72;;;3.95;59.67
21779;BME280;11050;52.222;20.916;2023-02-26T12:51:35;99960.84;;;4.39;56.63
21779;BME280;11050;52.222;20.916;2023-02-26T13:03:38;99984.56;;;4.57;53.83
21779;BME280;11050;52.222;20.916;2023-02-26T13:12:28;99990.59;;;4.83;53.31
21779;BME280;11050;52.222;20.916;2023-02-26T13:15:57;99993.91;;;4.86;52.92
21779;BME280;11050;52.222;20.916;2023-02-26T13:21:44;99989.72;;;4.65;53.13
21779;BME280;11050;52.222;20.916;2023-02-26T13:24:38;99995.56;;;4.44;54.14
21779;BME280;11050;52.222;20.916;2023-02-26T13:27:08;100003.25;;;4.47;53.58
21779;BME280;11050;52.222;20.916;2023-02-26T13:32:42;100005.66;;;4.61;53.36
21779;BME280;11050;52.222;20.916;2023-02-26T13:35:35;100006.44;;;4.68;53.51
21779;BME280;11050;52.222;20.916;2023-02-26T13:38:23;100014.72;;;4.80;53.90
21779;BME280;11050;52.222;20.916;2023-02-26T13:41:25;100011.91;;;4.87;53.86
21779;BME280;11050;52.222;20.916;2023-02-26T13:44:11;100019.38;;;4.98;53.70
21779;BME280;11050;52.222;20.916;2023-02-26T13:47:05;100025.91;;;5.15;52.20
21779;BME280;11050;52.222;20.916;2023-02-26T13:52:29;100027.78;;;5.50;51.51
21779;BME280;11050;52.222;20.916;2023-02-26T13:54:55;100026.84;;;5.56;50.65
21779;BME280;11050;52.222;20.916;2023-02-26T13:57:50;100033.06;;;5.45;51.17
21779;BME280;11050;52.222;20.916;2023-02-26T14:00:34;100028.25;;;5.29;50.43
21779;BME280;11050;52.222;20.916;2023-02-26T14:08:25;100029.75;;;5.25;51.73
21779;BME280;11050;52.222;20.916;2023-02-26T14:11:01;100040.09;;;5.53;52.23
21779;BME280;11050;52.222;20.916;2023-02-26T14:13:38;100046.34;;;5.60;50.95
21779;BME280;11050;52.222;20.916;2023-02-26T14:16:21;100032.16;;;5.51;51.09
21779;BME280;11050;52.222;20.916;2023-02-26T14:24:04;100052.59;;;5.24;53.12
21779;BME280;11050;52.222;20.916;2023-02-26T14:26:34;100043.19;;;5.02;52.69
21779;BME280;11050;52.222;20.916;2023-02-26T14:34:29;100062.63;;;4.56;53.92
21779;BME280;11050;52.222;20.916;2023-02-26T14:37:00;100058.38;;;4.36;54.70
21779;BME280;11050;52.222;20.916;2023-02-26T14:39:48;100070.16;;;4.30;56.53
21779;BME280;11050;52.222;20.916;2023-02-26T14:42:36;100076.25;;;4.25;55.56
21779;BME280;11050;52.222;20.916;2023-02-26T14:47:42;100073.38;;;4.14;57.02
21779;BME280;11050;52.222;20.916;2023-02-26T14:50:17;100080.78;;;4.00;57.04
21779;BME280;11050;52.222;20.916;2023-02-26T14:52:53;100091.03;;;3.98;58.07
21779;BME280;11050;52.222;20.916;2023-02-26T14:55:44;100088.53;;;3.97;58.82
21779;BME280;11050;52.222;20.916;2023-02-26T15:04:38;100086.41;;;4.05;58.72
21779;BME280;11050;52.222;20.916;2023-02-26T15:07:39;100089.69;;;4.14;58.63
21779;BME280;11050;52.222;20.916;2023-02-26T15:13:37;100110.00;;;4.11;59.18
21779;BME280;11050;52.222;20.916;2023-02-26T15:27:59;100101.22;;;4.09;59.83
21779;BME280;11050;52.222;20.916;2023-02-26T15:30:28;100110.41;;;4.15;59.67
21779;BME280;11050;52.222;20.916;2023-02-26T15:33:01;100122.31;;;4.20;59.70
21779;BME280;11050;52.222;20.916;2023-02-26T15:35:30;100127.13;;;4.18;59.68
21779;BME280;11050;52.222;20.916;2023-02-26T15:37:59;100129.22;;;4.16;60.14
21779;BME280;11050;52.222;20.916;2023-02-26T15:40:31;100133.25;;;4.07;60.81
21779;BME280;11050;52.222;20.916;2023-02-26T15:42:59;100135.38;;;3.99;60.22
21779;BME280;11050;52.222;20.916;2023-02-26T15:48:05;100133.34;;;3.81;61.17
21779;BME280;11050;52.222;20.916;2023-02-26T15:50:37;100142.78;;;3.78;61.41
21779;BME280;11050;52.222;20.916;2023-02-26T15:53:07;100147.63;;;3.63;61.25